Time;durP1;ratioP1;P1;durP2;ratioP2;P2;SDS_P1;SDS_P2;PMS_P1;PMS_P2;Temp;Humidity;BMP_temperature;BMP_pressure;BME280_temperature;BME280_humidity;BME280_pressure;Samples;Min_cycle;Max_cycle;Signal;HPM_P1;HPM_P2
2022/06/11 00:01:59;;;;;;;18.77;10.57;;;;;;;17.49;80.96;93383.44;5084278;28;20016;-87
2022/06/11 00:04:30;;;;;;;22.17;10.50;;;;;;;17.50;81.21;93379.59;5084200;28;20027;-87
2022/06/11 00:07:00;;;;;;;17.02;11.43;;;;;;;17.52;80.73;93378.06;5084299;28;20091;-86
2022/06/11 00:09:26;;;;;;;17.55;11.35;;;;;;;17.49;80.77;93376.13;5084109;28;20322;-88
2022/06/11 00:11:52;;;;;;;16.05;10.48;;;;;;;17.52;81.07;93380.75;5084168;28;20125;-85
2022/06/11 00:14:24;;;;;;;15.88;11.13;;;;;;;17.54;81.51;93378.47;5082780;28;20261;-85
2022/06/11 00:16:50;;;;;;;15.52;9.95;;;;;;;17.59;81.12;93377.38;5083746;28;20219;-85
2022/06/11 00:19:18;;;;;;;21.40;11.13;;;;;;;17.63;81.23;93378.97;5082789;28;20017;-85
2022/06/11 00:21:45;;;;;;;14.77;10.10;;;;;;;17.64;81.26;93374.34;5083862;28;20050;-85
2022/06/11 00:24:11;;;;;;;15.32;10.20;;;;;;;17.70;81.13;93385.56;5083931;28;20227;-86
2022/06/11 00:26:39;;;;;;;16.58;9.63;;;;;;;17.73;81.17;93376.75;5082147;28;20044;-85
2022/06/11 00:29:05;;;;;;;14.23;8.93;;;;;;;17.71;80.91;93371.75;5083936;28;20016;-85
2022/06/11 00:31:31;;;;;;;12.75;8.10;;;;;;;17.72;80.44;93378.66;5082338;28;20024;-84
2022/06/11 00:33:57;;;;;;;14.70;8.40;;;;;;;17.71;80.41;93374.44;5082364;28;20096;-86
2022/06/11 00:36:22;;;;;;;11.48;7.95;;;;;;;17.74;80.53;93376.38;5083641;28;20315;-85
2022/06/11 00:38:49;;;;;;;10.52;8.00;;;;;;;17.74;80.58;93376.38;5083841;28;20055;-87
2022/06/11 00:41:17;;;;;;;18.80;8.48;;;;;;;17.79;80.80;93381.44;5083453;28;20028;-87
2022/06/11 00:43:43;;;;;;;16.58;10.05;;;;;;;17.75;80.83;93382.56;5083495;28;20041;-87
2022/06/11 00:46:46;;;;;;;15.40;11.20;;;;;;;17.70;80.62;93375.56;5083574;28;20112;-86
2022/06/11 00:49:16;;;;;;;;;;;;;;;17.69;80.75;93370.53;5083824;28;20043;-85
2022/06/11 00:51:42;;;;;;;12.13;8.95;;;;;;;17.62;81.19;93377.41;5082002;28;20211;-85
2022/06/11 00:54:14;;;;;;;10.13;8.27;;;;;;;17.63;81.09;93375.50;5083242;28;20032;-85
2022/06/11 00:56:48;;;;;;;11.23;7.97;;;;;;;17.64;81.07;93379.72;5083522;28;20218;-88
2022/06/11 00:59:51;;;;;;;10.90;8.10;;;;;;;17.66;80.99;93377.44;5083790;28;20027;-87
2022/06/11 01:02:19;;;;;;;12.18;7.13;;;;;;;17.62;80.48;93366.63;5083314;28;20074;-87
2022/06/11 01:04:53;;;;;;;10.80;7.88;;;;;;;17.66;80.13;93380.13;5083422;28;20024;-88
2022/06/11 01:07:34;;;;;;;11.25;7.13;;;;;;;17.67;79.97;93378.22;5083492;28;20024;-87
2022/06/11 01:09:59;;;;;;;9.30;7.07;;;;;;;17.68;80.17;93374.38;5083225;28;20055;-87
2022/06/11 01:12:40;;;;;;;14.00;7.75;;;;;;;17.67;80.16;93368.22;5083274;28;20311;-88
2022/06/11 01:15:09;;;;;;;10.98;7.78;;;;;;;17.66;80.29;93369.38;5083067;28;20103;-89
2022/06/11 01:17:54;;;;;;;22.25;8.88;;;;;;;17.69;80.20;93376.72;5083638;28;20024;-89
2022/06/11 01:20:48;;;;;;;11.43;6.75;;;;;;;17.69;80.19;93359.75;5083375;28;20016;-88
2022/06/11 01:23:35;;;;;;;7.80;6.03;;;;;;;17.65;79.64;93363.19;5083430;28;20032;-88
2022/06/11 01:26:09;;;;;;;8.15;6.10;;;;;;;17.67;78.70;93364.75;5082239;28;20099;-89
2022/06/11 01:28:41;;;;;;;10.73;5.78;;;;;;;17.64;78.29;93367.03;5083494;28;20337;-89
2022/06/11 01:31:17;;;;;;;10.70;6.07;;;;;;;17.65;78.05;93375.91;5083567;28;20047;-89
2022/06/11 01:33:54;;;;;;;7.80;6.00;;;;;;;17.62;77.74;93366.63;5082661;28;20425;-88
2022/06/11 01:36:26;;;;;;;10.55;6.68;;;;;;;17.59;77.83;93375.47;5083648;28;20265;-89
2022/06/11 01:38:59;;;;;;;9.50;6.63;;;;;;;17.57;78.07;93376.97;5081647;28;20341;-89
2022/06/11 01:41:37;;;;;;;8.60;7.07;;;;;;;17.57;77.82;93379.66;5083909;28;20021;-90
2022/06/11 01:44:17;;;;;;;9.02;7.25;;;;;;;17.55;78.10;93382.72;5083689;28;20060;-89
2022/06/11 01:46:47;;;;;;;8.73;6.32;;;;;;;17.52;78.17;93380.00;5083586;28;20028;-89
2022/06/11 01:49:25;;;;;;;9.18;6.68;;;;;;;17.55;78.26;93380.03;5082584;28;20357;-89
2022/06/11 01:51:53;;;;;;;8.02;6.60;;;;;;;17.54;78.35;93377.69;5082391;28;20107;-90
2022/06/11 01:54:57;;;;;;;11.65;6.65;;;;;;;17.55;78.70;93384.66;5083674;28;20028;-89
2022/06/11 01:57:32;;;;;;;8.70;5.85;;;;;;;17.53;78.40;93382.31;5082780;28;20028;-85
2022/06/11 02:00:09;;;;;;;9.00;6.18;;;;;;;17.55;78.34;93387.34;5082672;28;20037;-85
2022/06/11 02:03:12;;;;;;;8.07;5.80;;;;;;;17.51;78.31;93381.16;5082537;28;20334;-86
2022/06/11 02:05:53;;;;;;;7.78;6.07;;;;;;;17.49;78.58;93386.13;5082532;28;20066;-86
2022/06/11 02:08:24;;;;;;;9.00;6.43;;;;;;;17.49;78.47;93378.03;5082542;28;20024;-85
2022/06/11 02:11:18;;;;;;;8.40;5.85;;;;;;;17.48;78.79;93387.25;5082517;28;20020;-85
2022/06/11 02:14:23;;;;;;;8.88;6.43;;;;;;;17.49;78.95;93376.13;5081392;28;20066;-84
2022/06/11 02:16:51;;;;;;;8.85;6.65;;;;;;;17.50;78.93;93379.59;5082818;28;20016;-85
2022/06/11 02:19:21;;;;;;;10.00;6.68;;;;;;;17.50;78.71;93379.59;5082478;28;20029;-85
2022/06/11 02:21:56;;;;;;;9.10;6.93;;;;;;;17.48;79.17;93382.63;5082440;28;20218;-86
2022/06/11 02:24:30;;;;;;;8.18;6.13;;;;;;;17.53;79.14;93386.94;5082692;28;20020;-86
2022/06/11 02:27:00;;;;;;;8.00;6.18;;;;;;;17.52;78.89;93382.69;5082570;28;20024;-86
2022/06/11 02:29:26;;;;;;;10.65;6.38;;;;;;;17.53;79.01;93389.63;5082079;28;20024;-83
2022/06/11 02:32:05;;;;;;;8.52;6.57;;;;;;;17.50;78.69;93380.34;5082220;28;20024;-84
2022/06/11 02:34:31;;;;;;;7.53;6.22;;;;;;;17.48;78.72;93387.25;5082073;28;20378;-84
2022/06/11 02:37:09;;;;;;;10.30;7.57;;;;;;;17.49;78.84;93386.13;5082358;28;20091;-83
2022/06/11 02:39:41;;;;;;;8.55;6.85;;;;;;;17.50;78.92;93390.34;5082356;28;20065;-83
2022/06/11 02:42:09;;;;;;;7.95;5.85;;;;;;;17.52;78.95;93388.84;5082306;28;20310;-84
2022/06/11 02:44:35;;;;;;;8.27;5.95;;;;;;;17.52;78.59;93380.75;5082281;28;20269;-84
2022/06/11 02:47:01;;;;;;;8.55;5.40;;;;;;;17.55;78.77;93387.34;5082205;28;20242;-85
2022/06/11 02:49:30;;;;;;;8.82;6.07;;;;;;;17.55;78.77;93387.34;5083405;28;20047;-85
2022/06/11 02:51:58;;;;;;;8.50;5.90;;;;;;;17.53;78.73;93381.56;5085899;28;20043;-85
2022/06/11 02:54:27;;;;;;;9.77;5.90;;;;;;;17.52;78.78;93377.28;5085704;28;20016;-84
2022/06/11 02:56:56;;;;;;;6.85;5.60;;;;;;;17.55;78.97;93387.34;5084350;28;20249;-84
2022/06/11 02:59:23;;;;;;;11.27;6.20;;;;;;;17.55;78.53;93390.03;5084238;28;20028;-87
2022/06/11 03:01:49;;;;;;;7.20;5.47;;;;;;;17.57;78.27;93393.16;5085741;28;20224;-87
2022/06/11 03:04:15;;;;;;;6.60;5.05;;;;;;;17.53;78.41;93389.63;5085547;28;20020;-87
2022/06/11 03:06:42;;;;;;;7.72;5.03;;;;;;;17.54;78.11;93385.78;5085206;28;20027;-86
2022/06/11 03:09:10;;;;;;;7.43;5.43;;;;;;;17.52;78.21;93390.75;5084213;28;20024;-86
2022/06/11 03:11:36;;;;;;;7.55;5.68;;;;;;;17.51;78.39;93392.69;5084291;28;20021;-84
2022/06/11 03:14:01;;;;;;;7.65;5.57;;;;;;;17.52;78.20;93390.75;5084044;28;20099;-86
2022/06/11 03:16:26;;;;;;;6.85;5.15;;;;;;;17.49;78.19;93405.00;5085475;28;20355;-88
2022/06/11 03:18:52;;;;;;;6.78;5.05;;;;;;;17.47;78.29;93402.66;5084035;28;20043;-87
2022/06/11 03:21:18;;;;;;;6.75;5.00;;;;;;;17.50;78.26;93406.53;5085295;28;20013;-86
2022/06/11 03:23:44;;;;;;;7.95;5.03;;;;;;;17.49;78.13;93405.00;5085083;28;20026;-86
2022/06/11 03:26:10;;;;;;;7.47;5.03;;;;;;;17.50;78.39;93410.00;5085326;28;20319;-88
2022/06/11 03:28:35;;;;;;;9.73;5.13;;;;;;;17.52;78.40;93407.69;5085329;28;20040;-87
2022/06/11 03:31:05;;;;;;;7.80;5.63;;;;;;;17.50;78.45;93406.53;5084990;28;20037;-86
2022/06/11 03:33:31;;;;;;;6.80;5.20;;;;;;;17.50;78.67;93414.59;5084930;28;20311;-85
2022/06/11 03:35:56;;;;;;;7.65;4.95;;;;;;;17.48;78.83;93406.13;5084765;28;20024;-85
2022/06/11 03:38:22;;;;;;;12.02;5.70;;;;;;;17.50;79.11;93406.53;5084940;28;20096;-86
2022/06/11 03:40:48;;;;;;;8.30;5.47;;;;;;;17.54;78.82;93404.66;5084951;28;20054;-86
2022/06/11 03:43:13;;;;;;;9.27;5.45;;;;;;;17.54;78.78;93404.66;5084719;28;20074;-85
2022/06/11 03:45:39;;;;;;;9.30;5.22;;;;;;;17.56;78.52;93399.66;5084686;28;20036;-84
2022/06/11 03:48:05;;;;;;;7.25;5.80;;;;;;;17.58;78.71;93398.16;5084943;28;20031;-86
2022/06/11 03:50:34;;;;;;;8.23;5.70;;;;;;;17.64;78.88;93404.00;5084476;28;20025;-86
2022/06/11 03:53:01;;;;;;;8.00;5.97;;;;;;;17.68;79.04;93398.66;5084632;28;20246;-86
2022/06/11 03:55:27;;;;;;;7.15;5.53;;;;;;;17.71;78.90;93404.06;5084497;28;20020;-86
2022/06/11 03:57:53;;;;;;;9.23;5.57;;;;;;;17.71;79.01;93401.38;5084352;28;20095;-86
2022/06/11 04:03:09;;;;;;;8.75;6.35;;;;;;;17.76;78.83;93411.81;5084737;28;20074;-88
2022/06/11 04:05:36;;;;;;;7.32;5.47;;;;;;;17.80;78.79;93415.31;5083790;28;20024;-87
2022/06/11 04:08:03;;;;;;;7.05;5.47;;;;;;;17.83;78.74;93409.25;5083301;28;20024;-85
2022/06/11 04:10:28;;;;;;;12.63;5.75;;;;;;;17.88;78.35;93416.22;5083919;28;20040;-86
2022/06/11 04:12:54;;;;;;;8.52;5.60;;;;;;;17.84;77.75;93400.00;5084213;28;20091;-85
2022/06/11 04:15:20;;;;;;;7.43;4.70;;;;;;;17.91;77.83;93407.41;5084079;28;20032;-86
2022/06/11 04:17:45;;;;;;;7.90;5.72;;;;;;;17.91;77.79;93412.78;5082477;28;20218;-86
2022/06/11 04:20:13;;;;;;;10.52;6.07;;;;;;;17.93;78.01;93410.50;5082713;28;20274;-86
2022/06/11 04:22:39;;;;;;;11.20;6.72;;;;;;;17.92;78.01;93424.34;5083952;28;20083;-85
2022/06/11 04:25:05;;;;;;;8.88;6.13;;;;;;;17.92;78.41;93418.94;5083920;28;20215;-86
2022/06/11 04:27:31;;;;;;;8.43;6.38;;;;;;;17.94;78.61;93435.53;5083883;28;20032;-86
2022/06/11 04:29:58;;;;;;;8.43;6.63;;;;;;;17.94;78.33;93427.44;5083686;28;20319;-85
2022/06/11 04:32:25;;;;;;;9.10;7.50;;;;;;;17.94;78.20;93424.75;5083638;28;20033;-85
2022/06/11 04:34:51;;;;;;;9.18;6.75;;;;;;;17.98;78.25;93431.72;5083417;28;20029;-85
2022/06/11 04:37:19;;;;;;;9.30;6.93;;;;;;;18.00;77.93;93426.72;5083460;28;20029;-85
2022/06/11 04:39:49;;;;;;;10.57;6.93;;;;;;;18.03;78.04;93433.31;5082555;28;20023;-85
2022/06/11 04:42:15;;;;;;;9.85;7.25;;;;;;;17.98;77.77;93434.41;5083497;28;20224;-88
2022/06/11 04:44:43;;;;;;;10.25;6.68;;;;;;;17.96;77.84;93434.00;5083230;28;20108;-87
2022/06/11 04:47:10;;;;;;;12.65;8.25;;;;;;;17.97;77.63;93440.16;5083563;28;20253;-87
2022/06/11 04:49:37;;;;;;;10.63;7.70;;;;;;;17.97;77.90;93442.88;5083541;28;20087;-87
2022/06/11 04:52:04;;;;;;;10.32;7.60;;;;;;;17.92;78.31;93438.59;5083352;28;20319;-87
2022/06/11 04:54:30;;;;;;;12.25;7.88;;;;;;;17.91;78.38;93452.44;5081586;28;20311;-84
2022/06/11 04:56:55;;;;;;;12.90;7.82;;;;;;;17.88;78.94;93447.78;5083403;28;20039;-84
2022/06/11 04:59:21;;;;;;;9.38;7.15;;;;;;;17.90;78.54;93451.66;5081953;28;20323;-81
2022/06/11 05:01:46;;;;;;;11.90;7.75;;;;;;;17.88;78.77;93458.56;5083158;28;20042;-85
2022/06/11 05:04:13;;;;;;;9.27;6.90;;;;;;;17.90;78.47;93462.44;5081822;28;20023;-84
2022/06/11 05:06:42;;;;;;;11.63;7.50;;;;;;;17.81;78.76;93470.03;5083049;28;20092;-84
2022/06/11 05:09:10;;;;;;;14.98;7.05;;;;;;;17.76;78.92;93452.25;5083365;28;20353;-84
2022/06/11 05:11:37;;;;;;;13.18;7.53;;;;;;;17.77;78.90;93469.22;5083166;28;20032;-73
2022/06/11 05:14:03;;;;;;;14.00;8.50;;;;;;;17.87;79.27;93467.78;5082930;28;20024;-75
2022/06/11 05:16:29;;;;;;;15.50;9.18;;;;;;;17.93;79.16;93471.72;5082962;28;20038;-75
2022/06/11 05:18:55;;;;;;;10.32;6.80;;;;;;;17.95;79.14;93469.44;5082803;28;20058;-75
2022/06/11 05:21:21;;;;;;;10.40;7.40;;;;;;;17.95;79.10;93474.81;5082806;28;20020;-74
2022/06/11 05:23:46;;;;;;;11.40;7.13;;;;;;;17.98;79.35;93474.09;5082891;28;20123;-74
2022/06/11 05:26:17;;;;;;;9.48;7.20;;;;;;;18.10;78.78;93471.13;5082558;28;20250;-74
2022/06/11 05:28:44;;;;;;;8.30;6.57;;;;;;;18.15;78.56;93473.50;5082581;28;20130;-72
2022/06/11 05:31:10;;;;;;;8.02;5.55;;;;;;;18.24;76.80;93475.91;5082426;28;20088;-74
2022/06/11 05:33:36;;;;;;;10.43;7.55;;;;;;;18.33;77.22;93467.50;5082854;28;20047;-74
2022/06/11 05:36:03;;;;;;;9.75;6.40;;;;;;;18.44;77.31;93479.19;5082599;28;20074;-75
2022/06/11 05:38:30;;;;;;;8.38;5.75;;;;;;;18.57;76.57;93474.28;5082753;28;20062;-73
2022/06/11 05:40:57;;;;;;;12.13;5.28;;;;;;;18.63;76.03;93481.66;5082416;28;20021;-75
2022/06/11 05:43:23;;;;;;;8.13;6.25;;;;;;;18.70;76.22;93480.16;5082542;28;20091;-74
2022/06/11 05:45:53;;;;;;;9.77;6.88;;;;;;;18.70;76.14;93486.31;5082537;28;20050;-72
2022/06/11 05:48:22;;;;;;;10.45;7.03;;;;;;;18.72;76.74;93494.06;5082312;28;20061;-72
2022/06/11 05:50:52;;;;;;;11.73;7.00;;;;;;;18.77;76.54;93485.63;5082379;28;20028;-74
2022/06/11 05:53:20;;;;;;;13.95;6.55;;;;;;;18.76;75.94;93495.63;5082570;28;20047;-74
2022/06/11 05:55:48;;;;;;;11.23;7.15;;;;;;;18.68;75.17;93493.25;5082267;28;20044;-73
2022/06/11 05:58:18;;;;;;;11.75;7.80;;;;;;;18.65;75.48;93489.38;5082496;28;20095;-74
2022/06/11 06:00:45;;;;;;;11.23;7.10;;;;;;;18.64;75.96;93498.59;5082275;28;20020;-73
2022/06/11 06:03:10;;;;;;;10.65;6.78;;;;;;;18.63;76.08;93508.63;5082329;28;20024;-73
2022/06/11 06:05:36;;;;;;;13.27;5.75;;;;;;;18.61;76.06;93504.78;5082468;28;20092;-72
2022/06/11 06:08:03;;;;;;;8.80;4.93;;;;;;;18.59;75.41;93513.22;5082458;28;20031;-72
2022/06/11 06:10:28;;;;;;;6.28;4.40;;;;;;;18.56;74.53;93513.19;5082404;28;20254;-73
2022/06/11 06:12:54;;;;;;;6.63;3.40;;;;;;;18.64;74.01;93506.72;5082255;28;20035;-71
2022/06/11 06:15:23;;;;;;;5.80;3.72;;;;;;;18.62;73.39;93507.09;5082200;28;20149;-72
2022/06/11 06:17:51;;;;;;;7.20;3.42;;;;;;;18.68;73.77;93504.03;5082212;28;20025;-72
2022/06/11 06:20:18;;;;;;;5.95;3.20;;;;;;;18.74;73.28;93513.34;5082198;28;20017;-72
2022/06/11 06:22:44;;;;;;;4.95;2.92;;;;;;;18.79;73.11;93516.53;5082171;28;20016;-72
2022/06/11 06:25:17;;;;;;;6.93;3.08;;;;;;;18.84;72.50;93512.69;5084653;28;20306;-72
2022/06/11 06:27:42;;;;;;;5.35;3.72;;;;;;;18.80;72.73;93515.34;5086065;28;20021;-72
2022/06/11 06:30:08;;;;;;;4.82;3.03;;;;;;;18.84;73.24;93518.09;5085935;28;20025;-74
2022/06/11 06:32:34;;;;;;;5.90;2.80;;;;;;;18.90;72.89;93522.00;5086001;28;20021;-74
2022/06/11 06:35:00;;;;;;;4.70;2.70;;;;;;;18.93;72.34;93515.88;5085873;28;20214;-74
2022/06/11 06:37:25;;;;;;;10.32;2.90;;;;;;;18.94;72.03;93528.22;5085819;28;20091;-74
2022/06/11 06:39:51;;;;;;;6.25;3.65;;;;;;;18.92;71.98;93521.63;5085827;28;20088;-74
2022/06/11 06:42:17;;;;;;;4.38;2.90;;;;;;;18.97;71.42;93524.78;5085794;28;20147;-74
2022/06/11 06:44:43;;;;;;;4.43;3.28;;;;;;;18.97;71.14;93522.06;5085504;28;20067;-74
2022/06/11 06:47:08;;;;;;;8.23;3.50;;;;;;;18.90;71.68;93524.69;5085728;28;20091;-74
2022/06/11 06:49:34;;;;;;;6.40;3.50;;;;;;;18.91;71.79;93522.78;5085741;28;20223;-78
2022/06/11 06:51:59;;;;;;;6.80;3.63;;;;;;;18.87;71.83;93532.75;5085465;28;20249;-75
2022/06/11 06:54:25;;;;;;;7.50;4.28;;;;;;;18.89;72.41;93525.88;5084109;28;20031;-75
2022/06/11 06:56:50;;;;;;;5.97;3.88;;;;;;;18.99;72.87;93525.19;5085279;28;20028;-82
2022/06/11 06:59:16;;;;;;;8.02;4.22;;;;;;;18.94;72.73;93525.50;5085311;28;20020;-74
2022/06/11 07:01:42;;;;;;;5.93;4.28;;;;;;;18.94;73.22;93533.59;5085309;28;20079;-74
2022/06/11 07:04:08;;;;;;;10.55;4.43;;;;;;;18.97;72.82;93521.28;5085544;28;20024;-74
2022/06/11 07:06:34;;;;;;;9.32;5.38;;;;;;;18.96;72.82;93525.13;5085160;28;20095;-74
2022/06/11 07:09:01;;;;;;;10.40;5.95;;;;;;;19.02;72.81;93526.34;5085113;28;20035;-74
2022/06/11 07:11:26;;;;;;;7.45;4.22;;;;;;;19.14;72.90;93519.88;5085044;28;20024;-74
2022/06/11 07:13:52;;;;;;;11.48;4.22;;;;;;;19.28;73.28;93519.19;5085294;28;20031;-74
2022/06/11 07:16:26;;;;;;;5.28;3.70;;;;;;;19.39;72.61;93525.44;5084882;28;20020;-74
2022/06/11 07:18:59;;;;;;;6.78;2.88;;;;;;;19.52;71.54;93534.00;5084737;28;20091;-74
2022/06/11 07:21:33;;;;;;;5.38;2.67;;;;;;;19.65;71.22;93522.50;5084817;28;20020;-74
2022/06/11 07:24:01;;;;;;;3.70;1.90;;;;;;;19.75;69.35;93539.97;5084644;28;20032;-74
2022/06/11 07:26:36;;;;;;;5.60;2.10;;;;;;;19.88;68.39;93536.94;5084819;28;20130;-75
2022/06/11 07:29:09;;;;;;;4.20;2.10;;;;;;;19.88;68.75;93540.41;5085071;28;20027;-87
2022/06/11 07:31:35;;;;;;;5.53;2.35;;;;;;;19.94;68.09;93546.22;5083862;28;20104;-87
2022/06/11 07:34:00;;;;;;;2.95;2.00;;;;;;;19.92;66.58;93546.59;5084358;28;20024;-82
2022/06/11 07:36:27;;;;;;;5.25;2.03;;;;;;;19.94;67.52;93538.88;5081186;28;20055;-82
2022/06/11 07:38:52;;;;;;;4.90;2.50;;;;;;;19.96;67.16;93541.22;5083194;28;20210;-82
2022/06/11 07:41:18;;;;;;;4.20;2.58;;;;;;;19.90;67.12;93556.25;5083350;28;20083;-82
2022/06/11 07:43:43;;;;;;;3.90;2.88;;;;;;;19.88;67.23;93550.44;5083462;28;20044;-82
2022/06/11 07:46:09;;;;;;;4.13;2.80;;;;;;;19.93;67.19;93552.81;5083762;28;20043;-82
2022/06/11 07:48:35;;;;;;;6.60;3.42;;;;;;;20.00;66.79;93556.28;5083616;28;20027;-82
2022/06/11 07:51:00;;;;;;;6.40;3.53;;;;;;;20.01;66.78;93554.38;5082247;28;20031;-81
2022/06/11 07:53:26;;;;;;;3.88;2.45;;;;;;;20.10;66.87;93554.78;5083658;28;20021;-81
2022/06/11 07:55:54;;;;;;;4.57;2.70;;;;;;;20.21;66.92;93552.13;5083998;28;20024;-81
2022/06/11 07:58:24;;;;;;;3.95;2.40;;;;;;;20.26;66.93;93554.47;5082617;28;20089;-81
2022/06/11 08:00:52;;;;;;;6.18;2.45;;;;;;;20.44;66.32;93551.81;5082582;28;20261;-81
2022/06/11 08:03:20;;;;;;;3.88;2.58;;;;;;;20.56;66.15;93540.63;5082302;28;20341;-81
2022/06/11 08:05:46;;;;;;;4.32;2.67;;;;;;;20.71;66.31;93543.41;5082370;28;20035;-81
2022/06/11 08:08:13;;;;;;;3.90;2.63;;;;;;;20.96;66.57;93546.13;5081305;28;20016;-82
2022/06/11 08:10:40;;;;;;;4.43;2.55;;;;;;;21.19;65.35;93540.34;5082285;28;20318;-82
2022/06/11 08:13:08;;;;;;;4.20;3.40;;;;;;;21.41;64.98;93552.69;5084032;28;20025;-84
2022/06/11 08:15:34;;;;;;;8.15;2.78;;;;;;;21.62;64.54;93554.63;5082860;28;20024;-82
2022/06/11 08:18:00;;;;;;;5.65;3.17;;;;;;;21.84;63.63;93549.94;5084073;28;20167;-82
2022/06/11 08:20:28;;;;;;;5.50;3.05;;;;;;;21.93;63.27;93556.88;5084082;28;20036;-82
2022/06/11 08:22:54;;;;;;;6.15;3.13;;;;;;;21.98;63.71;93553.75;5084000;28;20222;-82
2022/06/11 08:25:21;;;;;;;3.72;2.58;;;;;;;22.13;62.59;93552.53;5083796;28;20021;-82
2022/06/11 08:27:47;;;;;;;4.07;2.88;;;;;;;22.31;61.35;93557.94;5082492;28;20095;-82
2022/06/11 08:30:19;;;;;;;4.47;3.10;;;;;;;22.53;61.68;93545.03;5083653;28;20084;-82
2022/06/11 08:32:45;;;;;;;4.47;3.03;;;;;;;22.68;59.21;93547.66;5083614;28;20040;-82
2022/06/11 08:35:12;;;;;;;4.20;2.45;;;;;;;22.79;55.00;93554.53;5083720;28;20219;-83
2022/06/11 08:37:38;;;;;;;5.18;2.20;;;;;;;22.58;54.07;93541.88;5083773;28;20020;-82
2022/06/11 08:40:06;;;;;;;7.10;2.70;;;;;;;22.36;55.61;93552.06;5083345;28;20092;-83
2022/06/11 08:42:41;;;;;;;5.80;2.88;;;;;;;22.12;56.84;93552.94;5083499;28;20103;-83
2022/06/11 08:45:18;;;;;;;6.97;3.10;;;;;;;21.97;57.33;93542.13;5083471;28;20115;-83
2022/06/11 08:47:52;;;;;;;4.78;2.42;;;;;;;21.77;58.58;93543.75;5082058;28;20024;-83
2022/06/11 08:50:43;;;;;;;5.00;3.08;;;;;;;21.69;59.46;93544.94;5083600;28;20099;-83
2022/06/11 08:53:08;;;;;;;7.90;3.03;;;;;;;21.66;59.57;93549.19;5082720;28;20082;-83
2022/06/11 08:55:36;;;;;;;4.85;3.42;;;;;;;21.74;59.14;93539.13;5083198;28;20020;-84
2022/06/11 08:58:19;;;;;;;4.88;3.03;;;;;;;21.52;58.83;93539.16;5083236;28;20028;-83
2022/06/11 09:01:06;;;;;;;7.63;3.33;;;;;;;21.41;60.01;93539.16;5082128;28;20207;-83
2022/06/11 09:04:03;;;;;;;9.68;4.68;;;;;;;21.34;59.50;93541.09;5083107;28;20043;-83
2022/06/11 09:06:41;;;;;;;4.60;2.95;;;;;;;21.28;60.05;93540.69;5082930;28;20036;-84
2022/06/11 09:09:15;;;;;;;6.65;3.05;;;;;;;21.15;59.42;93536.84;5083173;28;20020;-83
2022/06/11 09:11:56;;;;;;;5.25;3.60;;;;;;;21.16;59.89;93541.09;5083222;28;20372;-84
2022/06/11 09:14:38;;;;;;;4.47;3.13;;;;;;;21.24;58.07;93540.69;5082967;28;20029;-83
2022/06/11 09:17:24;;;;;;;6.38;3.15;;;;;;;21.51;59.92;93544.97;5083166;28;20020;-83
2022/06/11 09:20:09;;;;;;;5.25;3.08;;;;;;;21.92;59.87;93545.25;5083037;28;20047;-83
2022/06/11 09:22:56;;;;;;;5.68;2.97;;;;;;;22.18;57.58;93540.50;5082881;28;20264;-82
2022/06/11 09:25:47;;;;;;;4.13;3.00;;;;;;;22.29;54.51;93541.25;5082722;28;20042;-83
2022/06/11 09:28:29;;;;;;;4.28;3.08;;;;;;;22.23;55.12;93540.09;5082788;28;20036;-82
2022/06/11 09:31:14;;;;;;;5.45;2.72;;;;;;;22.16;54.76;93540.88;5082571;28;20025;-82
2022/06/11 09:33:51;;;;;;;4.13;2.60;;;;;;;22.07;53.35;93543.25;5082962;28;20024;-82
2022/06/11 09:36:25;;;;;;;4.40;3.05;;;;;;;22.21;55.16;93540.50;5082809;28;20097;-82
2022/06/11 09:39:12;;;;;;;6.90;3.40;;;;;;;22.42;55.78;93541.59;5082654;28;20398;-82
2022/06/11 09:42:01;;;;;;;7.60;4.07;;;;;;;22.53;55.29;93542.31;5082721;28;20020;-82
2022/06/11 09:44:45;;;;;;;5.72;4.28;;;;;;;22.72;54.80;93543.75;5082608;28;20048;-82
2022/06/11 09:47:33;;;;;;;5.22;3.00;;;;;;;22.68;52.50;93544.94;5082826;28;20085;-82
2022/06/11 09:50:38;;;;;;;4.82;3.33;;;;;;;22.52;52.41;93548.13;5082474;28;20033;-81
2022/06/11 09:53:15;;;;;;;6.97;3.70;;;;;;;22.52;54.35;93553.56;5081838;28;20044;-81
2022/06/11 09:55:55;;;;;;;3.78;2.55;;;;;;;22.43;51.91;93546.63;5082876;28;20218;-82
2022/06/11 09:58:27;;;;;;;5.78;3.42;;;;;;;22.38;52.64;93555.16;5082504;28;20066;-81
2022/06/11 10:00:57;;;;;;;4.32;3.30;;;;;;;22.28;53.30;93555.22;5086672;28;20031;-82
2022/06/11 10:03:35;;;;;;;6.70;3.00;;;;;;;22.16;54.42;93549.03;5086913;28;20065;-81
2022/06/11 10:06:23;;;;;;;6.38;3.50;;;;;;;22.22;55.31;93560.25;5085219;28;20044;-81
2022/06/11 10:09:00;;;;;;;4.80;3.58;;;;;;;22.31;54.58;93557.13;5086321;28;20029;-81
2022/06/11 10:11:48;;;;;;;6.15;3.42;;;;;;;22.29;55.15;93551.31;5086740;28;20052;-81
2022/06/11 10:14:31;;;;;;;4.60;3.28;;;;;;;22.24;54.44;93553.28;5086333;28;20051;-81
2022/06/11 10:17:16;;;;;;;7.28;3.00;;;;;;;22.38;55.80;93549.75;5086170;28;20087;-81
2022/06/11 10:20:02;;;;;;;5.45;3.33;;;;;;;22.63;56.92;93549.63;5086372;28;20016;-81
2022/06/11 10:22:52;;;;;;;8.13;3.17;;;;;;;22.91;56.16;93560.69;5085992;28;20035;-81
2022/06/11 10:25:18;;;;;;;8.15;3.05;;;;;;;22.99;54.79;93560.22;5086082;28;20028;-83
2022/06/11 10:28:25;;;;;;;3.30;2.50;;;;;;;23.07;53.42;93562.94;5086223;28;20025;-81
2022/06/11 10:31:05;;;;;;;7.43;3.10;;;;;;;23.12;54.41;93557.06;5077908;28;20287;-83
2022/06/11 10:33:36;;;;;;;7.07;3.20;;;;;;;23.10;54.08;93559.41;5085656;28;20242;-81
2022/06/11 10:36:10;;;;;;;5.85;2.95;;;;;;;23.01;54.05;93571.50;5085878;28;20219;-81
2022/06/11 10:38:53;;;;;;;5.18;3.30;;;;;;;22.91;54.54;93564.19;5085795;28;20048;-81
2022/06/11 10:41:28;;;;;;;8.32;3.55;;;;;;;22.77;54.40;93577.84;5085660;28;20030;-81
2022/06/11 10:44:20;;;;;;;5.30;3.15;;;;;;;22.34;55.41;93588.94;5085527;28;20048;-81
2022/06/11 10:46:46;;;;;;;5.60;3.00;;;;;;;21.68;59.46;93592.97;5084619;28;20100;-81
2022/06/11 10:49:14;;;;;;;4.18;2.60;;;;;;;21.39;61.04;93600.31;5085566;28;20024;-81
2022/06/11 10:51:44;;;;;;;4.75;2.80;;;;;;;21.09;62.65;93612.31;5085504;28;20078;-81
2022/06/11 10:54:09;;;;;;;12.90;3.83;;;;;;;20.66;65.38;93604.13;5085423;28;20087;-81
2022/06/11 10:56:46;;;;;;;9.77;4.03;;;;;;;20.38;66.18;93616.38;5085429;28;20047;-81
2022/06/11 10:59:40;;;;;;;13.32;3.92;;;;;;;20.00;67.41;93613.09;5085556;28;20424;-82
2022/06/11 11:02:33;;;;;;;5.78;3.15;;;;;;;19.65;69.47;93603.59;5085412;28;20103;-82
2022/06/11 11:05:01;;;;;;;4.93;2.85;;;;;;;19.56;70.13;93615.88;5085223;28;20029;-81
2022/06/11 11:07:44;;;;;;;4.70;3.05;;;;;;;19.35;70.35;93617.28;5085306;28;20039;-81
2022/06/11 11:10:30;;;;;;;7.97;2.97;;;;;;;19.04;72.09;93616.63;5085000;28;20028;-81
2022/06/11 11:12:59;;;;;;;5.97;2.80;;;;;;;18.91;74.02;93620.78;5085228;28;20115;-82
2022/06/11 11:15:27;;;;;;;5.13;3.10;;;;;;;18.83;73.52;93622.63;5085034;28;20024;-82
2022/06/11 11:18:00;;;;;;;5.53;2.05;;;;;;;18.78;74.85;93614.06;5085182;28;20048;-82
2022/06/11 11:20:32;;;;;;;;;;;;;;;18.79;75.89;93613.72;5085469;28;20020;-81
2022/06/11 11:23:09;;;;;;;7.10;2.00;;;;;;;18.82;74.94;93612.19;5084928;28;19908;-82
2022/06/11 11:25:49;;;;;;;3.00;1.85;;;;;;;18.87;74.10;93611.88;5084938;28;20071;-82
2022/06/11 11:28:23;;;;;;;2.88;1.48;;;;;;;18.82;70.32;93602.16;5084895;28;20027;-82
2022/06/11 11:31:07;;;;;;;2.20;1.63;;;;;;;18.90;72.18;93599.53;5084680;28;20020;-81
2022/06/11 11:33:55;;;;;;;4.38;1.80;;;;;;;19.02;71.52;93602.72;5084664;28;20053;-81
2022/06/11 11:36:24;;;;;;;3.92;1.60;;;;;;;19.22;71.01;93591.72;5084565;28;20016;-82
2022/06/11 11:39:16;;;;;;;2.22;1.30;;;;;;;19.42;71.85;93598.44;5084774;28;20062;-82
2022/06/11 11:42:10;;;;;;;2.03;1.30;;;;;;;19.56;68.66;93595.06;5084664;28;20372;-82
2022/06/11 11:44:40;;;;;;;4.22;1.70;;;;;;;19.73;69.97;93595.56;5084428;28;20287;-82
2022/06/11 11:47:13;;;;;;;2.75;1.95;;;;;;;19.89;70.19;93584.47;5083483;28;20029;-82
2022/06/11 11:49:39;;;;;;;4.60;2.58;;;;;;;19.95;68.71;93593.78;5084243;28;20376;-82
2022/06/11 11:52:18;;;;;;;4.18;2.00;;;;;;;20.24;67.74;93602.78;5084454;28;20214;-82
2022/06/11 11:54:52;;;;;;;4.47;2.38;;;;;;;20.49;67.77;93583.91;5084565;28;20326;-82
2022/06/11 11:57:17;;;;;;;4.18;2.03;;;;;;;20.80;65.70;93587.09;5084552;28;20020;-83